Claremont, CA

10:10 PM PDT on September 16, 2014 (GMT -0700)
Claremont North of Baseline | Change Station
CLOSE
Current Station
Personal Weather Station
Location: Claremont, CA
Elevation: 1531 ft
Nearby Weather Stations

Elev 1531 ft 34.13 °N, 117.71 °W | Updated 24 seconds ago

Clear
Clear
83.9 °F
Feels Like 85 °F
N
0.0
Wind Variable Wind from ENE
Gusts 0.0 mph

Today
High -- | Low -- °F
--% Chance of Precip.
Yesterday
High -- | Low -- °F
Precip. -- in
6:34 AM 6:55 PM
Last Quarter, 39% visible
Pressure 29.78 in
Visibility 10.0 miles
Clouds Clear
Heat Index 85 °F
Dew Point 64 °F
Humidity 51%
Rainfall 0.00 in
Snow Depth 0 in , 0 in , 1 in
UV 0 out of 12
Pollen 6.80 out of 12
Ozone Good
Flu Activity Not available.
METAR KPOC 170247Z 00000KT 10SM CLR 32/13 A2978

More Conditions Fewer Conditions

Pressure 29.78 in
Visibility 10.0 miles
Clouds Clear
Heat Index 85 °F
Dew Point 64 °F
Humidity 51%
Rainfall 0.00 in
Snow Depth 0 in , 0 in , 1 in
UV 0 out of 12
Pollen 6.80 out of 12
Ozone Good
Flu Activity Not available.
METAR KPOC 170247Z 00000KT 10SM CLR 32/13 A2978

More Conditions Fewer Conditions

10-Day Weather Forecast

Almanac

Astronomy

Sep. 16, 2014 Rise Set
Actual Time 6:34 AM PDT 6:55 PM PDT
Civil Twilight 6:09 AM PDT 7:20 PM PDT
Nautical Twilight 5:40 AM PDT 7:50 PM PDT
Astronomical Twilight 5:10 AM PDT 8:20 PM PDT
Moon No Moon Rise 2:12 PM PDT (9/16)
Length of Visible Light 13h 11m
Length of Day
12h 21m
Tomorrow will be 2m 5s shorter.
Last Quarter, 39% of the Moon is Illuminated
Sep 17
Last Quarter
Sep 24
New
Oct 1
First Quarter
Oct 8
Full
Oct 15
Last Quarter

Yesterday's Extremes

State Highs State Lows

Community

WunderPhotos

Upload Photos

1,753,968 photos uploaded!

Nearby

Air Quality

  Air Quality AQ Index Pollutant
Yesterday Moderate
OZONE
Current Good
OZONE
Wednesday Moderate
OZONE
Wednesday Good
PM10
Wednesday Good
CO
Wednesday Good
NO2

Snow Depth

Station Depth Elevation
Forestdale Creek 0 in 8029 ft
Tahoe City Cross 0 in 6750 ft
Summit Meadow 1 in 9122 ft
Spratt Creek 0 in 6200 ft
Monitor Pass 0 in 8350 ft

Earthquake Activity

City Distance Mag. Time & Date
La Quinta, California 83 miles 2.7 8:59 PM PDT
2014-09-15
Inyokern, California 125 miles 3.2 5:56 PM PDT
2014-09-14
San Jacinto, California 48 miles 3.0 3:16 PM PDT
2014-09-14
Minimum magnitude displayed is 2.5.

Coastal Water Temperatures

Place Temperature
No Stations Reporting

Nearby Weather Stations